sensor_id;sensor_type;location;lat;lon;timestamp;P1;durP1;ratioP1;P2;durP2;ratioP2
8159;SDS011;27404;52.398;9.646;2023-09-12T00:00:19;15.27;;;11.20;;
8159;SDS011;27404;52.398;9.646;2023-09-12T00:02:44;13.63;;;10.40;;
8159;SDS011;27404;52.398;9.646;2023-09-12T00:05:10;20.60;;;11.30;;
8159;SDS011;27404;52.398;9.646;2023-09-12T00:07:36;16.93;;;11.40;;
8159;SDS011;27404;52.398;9.646;2023-09-12T00:10:02;17.13;;;11.60;;
8159;SDS011;27404;52.398;9.646;2023-09-12T00:12:28;16.00;;;12.07;;
8159;SDS011;27404;52.398;9.646;2023-09-12T00:14:54;16.47;;;11.77;;
8159;SDS011;27404;52.398;9.646;2023-09-12T00:17:19;22.10;;;12.67;;
8159;SDS011;27404;52.398;9.646;2023-09-12T00:19:45;20.40;;;13.57;;
8159;SDS011;27404;52.398;9.646;2023-09-12T00:22:10;19.60;;;12.60;;
8159;SDS011;27404;52.398;9.646;2023-09-12T00:24:36;14.63;;;11.50;;
8159;SDS011;27404;52.398;9.646;2023-09-12T00:27:03;16.33;;;11.60;;
8159;SDS011;27404;52.398;9.646;2023-09-12T00:29:30;16.33;;;11.90;;
8159;SDS011;27404;52.398;9.646;2023-09-12T00:31:55;22.30;;;12.47;;
8159;SDS011;27404;52.398;9.646;2023-09-12T00:34:21;17.93;;;13.33;;
8159;SDS011;27404;52.398;9.646;2023-09-12T00:36:46;15.87;;;12.47;;
8159;SDS011;27404;52.398;9.646;2023-09-12T00:39:11;19.50;;;12.33;;
8159;SDS011;27404;52.398;9.646;2023-09-12T00:41:37;18.07;;;12.73;;
8159;SDS011;27404;52.398;9.646;2023-09-12T00:44:02;13.57;;;12.07;;
8159;SDS011;27404;52.398;9.646;2023-09-12T00:46:28;16.97;;;12.13;;
8159;SDS011;27404;52.398;9.646;2023-09-12T00:48:54;18.47;;;11.93;;
8159;SDS011;27404;52.398;9.646;2023-09-12T00:51:22;18.50;;;12.13;;
8159;SDS011;27404;52.398;9.646;2023-09-12T00:53:50;20.77;;;12.47;;
8159;SDS011;27404;52.398;9.646;2023-09-12T00:56:16;19.70;;;13.63;;
8159;SDS011;27404;52.398;9.646;2023-09-12T00:58:42;14.63;;;12.40;;
8159;SDS011;27404;52.398;9.646;2023-09-12T01:01:08;14.90;;;11.70;;
8159;SDS011;27404;52.398;9.646;2023-09-12T01:03:33;14.87;;;10.87;;
8159;SDS011;27404;52.398;9.646;2023-09-12T01:06:00;17.03;;;12.10;;
8159;SDS011;27404;52.398;9.646;2023-09-12T01:08:27;15.03;;;11.23;;
8159;SDS011;27404;52.398;9.646;2023-09-12T01:10:53;16.17;;;11.57;;
8159;SDS011;27404;52.398;9.646;2023-09-12T01:13:22;15.63;;;11.53;;
8159;SDS011;27404;52.398;9.646;2023-09-12T01:15:48;16.73;;;11.40;;
8159;SDS011;27404;52.398;9.646;2023-09-12T01:18:13;13.57;;;11.30;;
8159;SDS011;27404;52.398;9.646;2023-09-12T01:20:40;16.83;;;11.87;;
8159;SDS011;27404;52.398;9.646;2023-09-12T01:29:03;15.43;;;13.10;;
8159;SDS011;27404;52.398;9.646;2023-09-12T01:31:31;21.50;;;13.87;;
8159;SDS011;27404;52.398;9.646;2023-09-12T01:33:58;16.70;;;12.37;;
8159;SDS011;27404;52.398;9.646;2023-09-12T01:36:34;17.07;;;12.67;;
8159;SDS011;27404;52.398;9.646;2023-09-12T01:38:59;17.90;;;14.23;;
8159;SDS011;27404;52.398;9.646;2023-09-12T01:41:25;22.77;;;13.50;;
8159;SDS011;27404;52.398;9.646;2023-09-12T01:43:51;17.63;;;12.63;;
8159;SDS011;27404;52.398;9.646;2023-09-12T01:46:18;17.13;;;12.87;;
8159;SDS011;27404;52.398;9.646;2023-09-12T01:48:45;13.97;;;12.33;;
8159;SDS011;27404;52.398;9.646;2023-09-12T01:51:16;14.43;;;12.53;;
8159;SDS011;27404;52.398;9.646;2023-09-12T01:53:44;18.17;;;12.70;;
8159;SDS011;27404;52.398;9.646;2023-09-12T01:56:11;17.70;;;12.80;;
8159;SDS011;27404;52.398;9.646;2023-09-12T01:58:37;15.37;;;12.70;;
8159;SDS011;27404;52.398;9.646;2023-09-12T02:01:03;18.13;;;14.87;;
8159;SDS011;27404;52.398;9.646;2023-09-12T02:03:29;24.43;;;14.83;;
8159;SDS011;27404;52.398;9.646;2023-09-12T02:05:54;18.70;;;14.00;;
8159;SDS011;27404;52.398;9.646;2023-09-12T02:08:20;19.20;;;14.37;;
8159;SDS011;27404;52.398;9.646;2023-09-12T02:10:45;23.90;;;14.77;;
8159;SDS011;27404;52.398;9.646;2023-09-12T02:13:11;18.53;;;13.90;;
8159;SDS011;27404;52.398;9.646;2023-09-12T02:15:36;21.07;;;15.60;;
8159;SDS011;27404;52.398;9.646;2023-09-12T02:18:02;17.37;;;13.43;;
8159;SDS011;27404;52.398;9.646;2023-09-12T02:20:28;16.53;;;13.90;;
8159;SDS011;27404;52.398;9.646;2023-09-12T02:22:53;20.50;;;15.63;;
8159;SDS011;27404;52.398;9.646;2023-09-12T02:25:18;20.50;;;15.93;;
8159;SDS011;27404;52.398;9.646;2023-09-12T02:27:44;24.30;;;17.07;;
8159;SDS011;27404;52.398;9.646;2023-09-12T02:30:10;21.27;;;15.60;;
8159;SDS011;27404;52.398;9.646;2023-09-12T02:32:35;19.17;;;16.70;;
8159;SDS011;27404;52.398;9.646;2023-09-12T02:35:01;23.17;;;16.70;;
8159;SDS011;27404;52.398;9.646;2023-09-12T02:37:26;18.57;;;15.70;;
8159;SDS011;27404;52.398;9.646;2023-09-12T02:39:52;23.27;;;16.50;;
8159;SDS011;27404;52.398;9.646;2023-09-12T02:42:17;18.07;;;14.23;;
8159;SDS011;27404;52.398;9.646;2023-09-12T02:44:43;23.60;;;15.73;;
8159;SDS011;27404;52.398;9.646;2023-09-12T02:47:08;20.73;;;15.40;;
8159;SDS011;27404;52.398;9.646;2023-09-12T02:49:34;21.40;;;14.80;;
8159;SDS011;27404;52.398;9.646;2023-09-12T02:51:59;19.33;;;15.63;;
8159;SDS011;27404;52.398;9.646;2023-09-12T02:54:24;19.43;;;14.77;;
8159;SDS011;27404;52.398;9.646;2023-09-12T02:56:50;25.47;;;16.57;;
8159;SDS011;27404;52.398;9.646;2023-09-12T02:59:15;23.63;;;15.50;;
8159;SDS011;27404;52.398;9.646;2023-09-12T03:01:41;19.57;;;14.93;;
8159;SDS011;27404;52.398;9.646;2023-09-12T03:04:06;19.80;;;14.67;;
8159;SDS011;27404;52.398;9.646;2023-09-12T03:06:32;16.67;;;14.63;;
8159;SDS011;27404;52.398;9.646;2023-09-12T03:08:57;22.40;;;16.27;;
8159;SDS011;27404;52.398;9.646;2023-09-12T03:11:25;19.67;;;14.70;;
8159;SDS011;27404;52.398;9.646;2023-09-12T03:13:52;19.47;;;14.47;;
8159;SDS011;27404;52.398;9.646;2023-09-12T03:16:18;19.33;;;14.30;;
8159;SDS011;27404;52.398;9.646;2023-09-12T03:18:43;22.63;;;16.40;;
8159;SDS011;27404;52.398;9.646;2023-09-12T03:21:08;17.17;;;14.67;;
8159;SDS011;27404;52.398;9.646;2023-09-12T03:23:34;21.90;;;15.97;;
8159;SDS011;27404;52.398;9.646;2023-09-12T03:26:03;20.87;;;16.90;;
8159;SDS011;27404;52.398;9.646;2023-09-12T03:28:29;17.23;;;14.07;;
8159;SDS011;27404;52.398;9.646;2023-09-12T03:31:11;18.00;;;15.63;;
8159;SDS011;27404;52.398;9.646;2023-09-12T03:33:38;24.60;;;16.80;;
8159;SDS011;27404;52.398;9.646;2023-09-12T03:36:07;22.97;;;16.33;;
8159;SDS011;27404;52.398;9.646;2023-09-12T03:38:34;24.40;;;17.73;;
8159;SDS011;27404;52.398;9.646;2023-09-12T03:41:00;23.17;;;16.70;;
8159;SDS011;27404;52.398;9.646;2023-09-12T03:43:26;21.87;;;17.23;;
8159;SDS011;27404;52.398;9.646;2023-09-12T03:45:51;22.70;;;17.03;;
8159;SDS011;27404;52.398;9.646;2023-09-12T03:48:17;24.67;;;19.17;;
8159;SDS011;27404;52.398;9.646;2023-09-12T03:50:42;28.80;;;19.17;;
8159;SDS011;27404;52.398;9.646;2023-09-12T03:53:08;26.97;;;18.10;;
8159;SDS011;27404;52.398;9.646;2023-09-12T03:55:34;22.80;;;17.80;;
8159;SDS011;27404;52.398;9.646;2023-09-12T03:57:59;24.60;;;17.83;;
8159;SDS011;27404;52.398;9.646;2023-09-12T04:00:25;24.63;;;18.07;;
8159;SDS011;27404;52.398;9.646;2023-09-12T04:02:50;19.77;;;16.83;;
8159;SDS011;27404;52.398;9.646;2023-09-12T04:05:16;25.13;;;18.37;;
8159;SDS011;27404;52.398;9.646;2023-09-12T04:07:41;19.93;;;15.87;;
8159;SDS011;27404;52.398;9.646;2023-09-12T04:10:07;23.67;;;16.63;;
8159;SDS011;27404;52.398;9.646;2023-09-12T04:12:33;30.77;;;18.50;;
8159;SDS011;27404;52.398;9.646;2023-09-12T04:14:58;28.47;;;20.10;;
8159;SDS011;27404;52.398;9.646;2023-09-12T04:17:24;21.83;;;15.47;;
8159;SDS011;27404;52.398;9.646;2023-09-12T04:19:49;24.67;;;16.33;;
8159;SDS011;27404;52.398;9.646;2023-09-12T04:22:14;22.70;;;17.23;;
8159;SDS011;27404;52.398;9.646;2023-09-12T04:24:40;22.93;;;16.50;;
8159;SDS011;27404;52.398;9.646;2023-09-12T04:27:06;21.17;;;15.43;;
8159;SDS011;27404;52.398;9.646;2023-09-12T04:29:34;18.40;;;13.43;;
8159;SDS011;27404;52.398;9.646;2023-09-12T04:32:01;20.30;;;14.77;;
8159;SDS011;27404;52.398;9.646;2023-09-12T04:34:30;14.40;;;11.60;;
8159;SDS011;27404;52.398;9.646;2023-09-12T04:36:56;13.30;;;10.37;;
8159;SDS011;27404;52.398;9.646;2023-09-12T04:39:21;16.57;;;12.47;;
8159;SDS011;27404;52.398;9.646;2023-09-12T04:41:47;14.87;;;10.63;;
8159;SDS011;27404;52.398;9.646;2023-09-12T04:44:12;13.93;;;11.03;;
8159;SDS011;27404;52.398;9.646;2023-09-12T04:46:37;14.77;;;11.10;;
8159;SDS011;27404;52.398;9.646;2023-09-12T04:49:03;13.03;;;10.43;;
8159;SDS011;27404;52.398;9.646;2023-09-12T04:51:29;15.73;;;10.63;;
8159;SDS011;27404;52.398;9.646;2023-09-12T04:53:54;14.60;;;10.57;;
8159;SDS011;27404;52.398;9.646;2023-09-12T04:56:20;14.93;;;11.43;;
8159;SDS011;27404;52.398;9.646;2023-09-12T04:58:45;18.77;;;14.00;;
8159;SDS011;27404;52.398;9.646;2023-09-12T05:01:11;19.80;;;13.40;;
8159;SDS011;27404;52.398;9.646;2023-09-12T05:03:37;16.20;;;13.20;;
8159;SDS011;27404;52.398;9.646;2023-09-12T05:06:02;17.73;;;14.50;;
8159;SDS011;27404;52.398;9.646;2023-09-12T05:08:28;22.50;;;16.57;;
8159;SDS011;27404;52.398;9.646;2023-09-12T05:10:54;20.27;;;16.40;;
8159;SDS011;27404;52.398;9.646;2023-09-12T05:13:20;25.87;;;16.37;;
8159;SDS011;27404;52.398;9.646;2023-09-12T05:15:46;22.30;;;17.13;;
8159;SDS011;27404;52.398;9.646;2023-09-12T05:18:12;18.90;;;15.23;;
8159;SDS011;27404;52.398;9.646;2023-09-12T05:20:37;18.10;;;14.97;;
8159;SDS011;27404;52.398;9.646;2023-09-12T05:23:03;20.37;;;16.07;;
8159;SDS011;27404;52.398;9.646;2023-09-12T05:25:28;19.93;;;15.30;;
8159;SDS011;27404;52.398;9.646;2023-09-12T05:27:55;22.87;;;16.53;;
8159;SDS011;27404;52.398;9.646;2023-09-12T05:30:20;18.17;;;14.80;;
8159;SDS011;27404;52.398;9.646;2023-09-12T05:32:46;19.80;;;14.80;;
8159;SDS011;27404;52.398;9.646;2023-09-12T05:35:11;18.77;;;15.57;;
8159;SDS011;27404;52.398;9.646;2023-09-12T05:37:37;26.20;;;18.53;;
8159;SDS011;27404;52.398;9.646;2023-09-12T05:40:02;27.83;;;19.87;;
8159;SDS011;27404;52.398;9.646;2023-09-12T05:42:28;28.13;;;19.00;;
8159;SDS011;27404;52.398;9.646;2023-09-12T05:44:54;22.33;;;14.80;;
8159;SDS011;27404;52.398;9.646;2023-09-12T05:47:20;24.50;;;15.83;;
8159;SDS011;27404;52.398;9.646;2023-09-12T05:49:46;18.07;;;14.43;;
8159;SDS011;27404;52.398;9.646;2023-09-12T05:52:12;17.83;;;11.80;;
8159;SDS011;27404;52.398;9.646;2023-09-12T05:54:37;22.20;;;12.57;;
8159;SDS011;27404;52.398;9.646;2023-09-12T05:57:04;21.60;;;14.60;;
8159;SDS011;27404;52.398;9.646;2023-09-12T05:59:30;18.33;;;11.27;;
8159;SDS011;27404;52.398;9.646;2023-09-12T06:01:55;16.43;;;11.03;;
8159;SDS011;27404;52.398;9.646;2023-09-12T06:04:21;15.33;;;10.53;;
8159;SDS011;27404;52.398;9.646;2023-09-12T06:06:47;15.57;;;10.93;;
8159;SDS011;27404;52.398;9.646;2023-09-12T06:09:12;13.93;;;10.07;;
8159;SDS011;27404;52.398;9.646;2023-09-12T06:11:38;13.57;;;10.30;;
8159;SDS011;27404;52.398;9.646;2023-09-12T06:14:03;15.30;;;10.93;;
8159;SDS011;27404;52.398;9.646;2023-09-12T06:16:29;15.73;;;11.60;;
8159;SDS011;27404;52.398;9.646;2023-09-12T06:18:55;17.10;;;11.57;;
8159;SDS011;27404;52.398;9.646;2023-09-12T06:21:20;20.33;;;14.07;;
8159;SDS011;27404;52.398;9.646;2023-09-12T06:24:03;15.63;;;11.20;;
8159;SDS011;27404;52.398;9.646;2023-09-12T06:26:35;17.27;;;11.13;;
8159;SDS011;27404;52.398;9.646;2023-09-12T06:29:01;16.00;;;10.27;;
8159;SDS011;27404;52.398;9.646;2023-09-12T06:31:27;16.40;;;10.87;;
8159;SDS011;27404;52.398;9.646;2023-09-12T06:33:53;17.23;;;10.43;;
8159;SDS011;27404;52.398;9.646;2023-09-12T06:36:18;16.47;;;10.80;;
8159;SDS011;27404;52.398;9.646;2023-09-12T06:38:43;13.70;;;10.00;;
8159;SDS011;27404;52.398;9.646;2023-09-12T06:41:09;13.67;;;10.43;;
8159;SDS011;27404;52.398;9.646;2023-09-12T06:43:34;14.80;;;9.60;;
8159;SDS011;27404;52.398;9.646;2023-09-12T06:46:00;15.80;;;10.60;;
8159;SDS011;27404;52.398;9.646;2023-09-12T06:48:25;17.07;;;11.50;;
8159;SDS011;27404;52.398;9.646;2023-09-12T06:50:51;17.43;;;11.40;;
8159;SDS011;27404;52.398;9.646;2023-09-12T06:53:18;16.47;;;10.67;;
8159;SDS011;27404;52.398;9.646;2023-09-12T06:55:44;16.03;;;10.70;;
8159;SDS011;27404;52.398;9.646;2023-09-12T06:58:09;18.10;;;11.13;;
8159;SDS011;27404;52.398;9.646;2023-09-12T07:00:36;17.33;;;10.90;;
8159;SDS011;27404;52.398;9.646;2023-09-12T07:03:01;14.17;;;10.40;;
8159;SDS011;27404;52.398;9.646;2023-09-12T07:05:27;12.20;;;10.13;;
8159;SDS011;27404;52.398;9.646;2023-09-12T07:07:52;15.87;;;11.47;;
8159;SDS011;27404;52.398;9.646;2023-09-12T07:10:18;12.03;;;10.10;;
8159;SDS011;27404;52.398;9.646;2023-09-12T07:12:43;19.03;;;10.87;;
8159;SDS011;27404;52.398;9.646;2023-09-12T07:15:09;12.30;;;10.20;;
8159;SDS011;27404;52.398;9.646;2023-09-12T07:17:35;16.87;;;12.03;;
8159;SDS011;27404;52.398;9.646;2023-09-12T07:20:00;14.87;;;11.23;;
8159;SDS011;27404;52.398;9.646;2023-09-12T07:22:29;15.57;;;11.30;;
8159;SDS011;27404;52.398;9.646;2023-09-12T07:24:55;15.60;;;11.37;;
8159;SDS011;27404;52.398;9.646;2023-09-12T07:27:20;13.20;;;10.23;;
8159;SDS011;27404;52.398;9.646;2023-09-12T07:29:46;15.40;;;11.60;;
8159;SDS011;27404;52.398;9.646;2023-09-12T07:32:11;16.23;;;11.43;;
8159;SDS011;27404;52.398;9.646;2023-09-12T07:34:36;14.70;;;11.77;;
8159;SDS011;27404;52.398;9.646;2023-09-12T07:37:03;14.03;;;11.40;;
8159;SDS011;27404;52.398;9.646;2023-09-12T07:39:28;14.77;;;10.60;;
8159;SDS011;27404;52.398;9.646;2023-09-12T07:41:54;15.07;;;12.30;;
8159;SDS011;27404;52.398;9.646;2023-09-12T07:44:20;13.87;;;11.47;;
8159;SDS011;27404;52.398;9.646;2023-09-12T07:46:46;21.60;;;13.43;;
8159;SDS011;27404;52.398;9.646;2023-09-12T07:49:11;16.30;;;12.33;;
8159;SDS011;27404;52.398;9.646;2023-09-12T07:51:37;19.00;;;12.93;;
8159;SDS011;27404;52.398;9.646;2023-09-12T07:54:02;14.60;;;12.53;;
8159;SDS011;27404;52.398;9.646;2023-09-12T07:56:28;17.97;;;13.23;;
8159;SDS011;27404;52.398;9.646;2023-09-12T07:58:53;14.50;;;12.17;;
8159;SDS011;27404;52.398;9.646;2023-09-12T08:01:20;15.27;;;13.67;;
8159;SDS011;27404;52.398;9.646;2023-09-12T08:03:46;16.63;;;12.53;;
8159;SDS011;27404;52.398;9.646;2023-09-12T08:06:12;15.47;;;13.00;;
8159;SDS011;27404;52.398;9.646;2023-09-12T08:08:38;18.90;;;13.43;;
8159;SDS011;27404;52.398;9.646;2023-09-12T08:11:03;17.27;;;12.97;;
8159;SDS011;27404;52.398;9.646;2023-09-12T08:13:30;14.37;;;11.90;;
8159;SDS011;27404;52.398;9.646;2023-09-12T08:15:56;14.00;;;11.77;;
8159;SDS011;27404;52.398;9.646;2023-09-12T08:18:25;19.57;;;13.17;;
8159;SDS011;27404;52.398;9.646;2023-09-12T08:20:53;14.27;;;12.77;;
8159;SDS011;27404;52.398;9.646;2023-09-12T08:23:18;14.37;;;11.77;;
8159;SDS011;27404;52.398;9.646;2023-09-12T08:25:43;20.00;;;14.07;;
8159;SDS011;27404;52.398;9.646;2023-09-12T08:28:09;17.47;;;14.63;;
8159;SDS011;27404;52.398;9.646;2023-09-12T08:30:34;18.17;;;15.60;;
8159;SDS011;27404;52.398;9.646;2023-09-12T08:33:00;18.13;;;14.60;;
8159;SDS011;27404;52.398;9.646;2023-09-12T08:35:28;14.60;;;10.87;;
8159;SDS011;27404;52.398;9.646;2023-09-12T08:37:53;13.20;;;9.47;;
8159;SDS011;27404;52.398;9.646;2023-09-12T08:40:19;7.17;;;6.47;;
8159;SDS011;27404;52.398;9.646;2023-09-12T08:42:45;8.87;;;6.33;;
8159;SDS011;27404;52.398;9.646;2023-09-12T08:45:14;6.93;;;5.53;;
8159;SDS011;27404;52.398;9.646;2023-09-12T08:47:42;6.27;;;5.30;;
8159;SDS011;27404;52.398;9.646;2023-09-12T08:50:12;8.40;;;4.90;;
8159;SDS011;27404;52.398;9.646;2023-09-12T08:52:40;6.33;;;4.80;;
8159;SDS011;27404;52.398;9.646;2023-09-12T08:55:06;5.80;;;4.73;;
8159;SDS011;27404;52.398;9.646;2023-09-12T08:57:33;6.40;;;5.07;;
8159;SDS011;27404;52.398;9.646;2023-09-12T09:00:00;6.83;;;4.93;;
8159;SDS011;27404;52.398;9.646;2023-09-12T09:02:34;7.13;;;5.70;;
8159;SDS011;27404;52.398;9.646;2023-09-12T09:05:01;11.07;;;5.83;;
8159;SDS011;27404;52.398;9.646;2023-09-12T09:07:30;6.13;;;4.80;;
8159;SDS011;27404;52.398;9.646;2023-09-12T09:09:59;5.87;;;5.17;;
8159;SDS011;27404;52.398;9.646;2023-09-12T09:12:27;6.97;;;5.47;;
8159;SDS011;27404;52.398;9.646;2023-09-12T09:14:53;8.63;;;5.43;;
8159;SDS011;27404;52.398;9.646;2023-09-12T09:17:19;6.83;;;5.60;;
8159;SDS011;27404;52.398;9.646;2023-09-12T09:19:44;6.43;;;5.30;;
8159;SDS011;27404;52.398;9.646;2023-09-12T09:22:10;7.33;;;5.30;;
8159;SDS011;27404;52.398;9.646;2023-09-12T09:24:36;7.60;;;5.90;;
8159;SDS011;27404;52.398;9.646;2023-09-12T09:27:01;11.73;;;6.57;;
8159;SDS011;27404;52.398;9.646;2023-09-12T09:29:27;10.10;;;6.87;;
8159;SDS011;27404;52.398;9.646;2023-09-12T09:31:59;15.70;;;9.03;;
8159;SDS011;27404;52.398;9.646;2023-09-12T09:34:30;10.87;;;8.00;;
8159;SDS011;27404;52.398;9.646;2023-09-12T09:36:57;17.00;;;9.27;;
8159;SDS011;27404;52.398;9.646;2023-09-12T09:39:24;11.53;;;8.90;;
8159;SDS011;27404;52.398;9.646;2023-09-12T09:41:52;11.77;;;8.67;;
8159;SDS011;27404;52.398;9.646;2023-09-12T09:44:18;19.03;;;10.47;;
8159;SDS011;27404;52.398;9.646;2023-09-12T09:46:46;13.43;;;9.93;;
8159;SDS011;27404;52.398;9.646;2023-09-12T09:49:19;13.20;;;9.50;;
8159;SDS011;27404;52.398;9.646;2023-09-12T09:51:45;14.23;;;10.37;;
8159;SDS011;27404;52.398;9.646;2023-09-12T09:54:14;15.63;;;9.87;;
8159;SDS011;27404;52.398;9.646;2023-09-12T09:56:46;18.80;;;11.70;;
8159;SDS011;27404;52.398;9.646;2023-09-12T09:59:13;19.70;;;11.00;;
8159;SDS011;27404;52.398;9.646;2023-09-12T10:01:40;13.13;;;10.47;;
8159;SDS011;27404;52.398;9.646;2023-09-12T10:04:08;25.47;;;12.00;;
8159;SDS011;27404;52.398;9.646;2023-09-12T10:06:33;14.63;;;10.87;;
8159;SDS011;27404;52.398;9.646;2023-09-12T10:09:01;15.07;;;10.10;;
8159;SDS011;27404;52.398;9.646;2023-09-12T10:11:33;12.17;;;9.97;;
8159;SDS011;27404;52.398;9.646;2023-09-12T10:13:59;17.00;;;10.87;;
8159;SDS011;27404;52.398;9.646;2023-09-12T10:16:49;15.13;;;10.87;;
8159;SDS011;27404;52.398;9.646;2023-09-12T10:19:23;13.43;;;10.23;;
8159;SDS011;27404;52.398;9.646;2023-09-12T10:24:30;13.20;;;10.43;;
8159;SDS011;27404;52.398;9.646;2023-09-12T10:26:57;11.30;;;10.20;;
8159;SDS011;27404;52.398;9.646;2023-09-12T10:29:24;12.70;;;9.53;;
8159;SDS011;27404;52.398;9.646;2023-09-12T10:31:49;12.23;;;10.00;;
8159;SDS011;27404;52.398;9.646;2023-09-12T10:34:15;12.90;;;10.10;;
8159;SDS011;27404;52.398;9.646;2023-09-12T10:36:42;15.33;;;10.97;;
8159;SDS011;27404;52.398;9.646;2023-09-12T10:39:08;14.80;;;11.10;;
8159;SDS011;27404;52.398;9.646;2023-09-12T10:41:38;12.63;;;10.93;;
8159;SDS011;27404;52.398;9.646;2023-09-12T10:44:12;11.70;;;10.17;;
8159;SDS011;27404;52.398;9.646;2023-09-12T10:46:41;14.30;;;11.30;;
8159;SDS011;27404;52.398;9.646;2023-09-12T10:49:11;13.87;;;11.37;;
8159;SDS011;27404;52.398;9.646;2023-09-12T10:51:41;12.53;;;10.47;;
8159;SDS011;27404;52.398;9.646;2023-09-12T10:54:08;16.27;;;11.20;;
8159;SDS011;27404;52.398;9.646;2023-09-12T10:56:37;11.30;;;9.83;;
8159;SDS011;27404;52.398;9.646;2023-09-12T11:01:43;11.97;;;9.23;;
8159;SDS011;27404;52.398;9.646;2023-09-12T11:06:45;15.13;;;11.23;;
8159;SDS011;27404;52.398;9.646;2023-09-12T11:11:40;13.10;;;10.47;;
8159;SDS011;27404;52.398;9.646;2023-09-12T11:14:10;14.40;;;11.20;;
8159;SDS011;27404;52.398;9.646;2023-09-12T11:16:35;12.00;;;9.87;;
8159;SDS011;27404;52.398;9.646;2023-09-12T11:21:39;10.70;;;9.43;;
8159;SDS011;27404;52.398;9.646;2023-09-12T11:24:06;12.77;;;9.97;;
8159;SDS011;27404;52.398;9.646;2023-09-12T11:26:31;14.13;;;10.47;;
8159;SDS011;27404;52.398;9.646;2023-09-12T11:28:58;14.73;;;11.40;;
8159;SDS011;27404;52.398;9.646;2023-09-12T11:31:36;15.93;;;11.50;;
8159;SDS011;27404;52.398;9.646;2023-09-12T11:34:08;18.50;;;11.73;;
8159;SDS011;27404;52.398;9.646;2023-09-12T11:36:41;15.97;;;11.80;;
8159;SDS011;27404;52.398;9.646;2023-09-12T11:39:29;15.30;;;11.30;;
8159;SDS011;27404;52.398;9.646;2023-09-12T11:41:55;15.60;;;11.80;;
8159;SDS011;27404;52.398;9.646;2023-09-12T11:44:21;15.40;;;12.30;;
8159;SDS011;27404;52.398;9.646;2023-09-12T11:46:48;14.47;;;11.37;;
8159;SDS011;27404;52.398;9.646;2023-09-12T11:49:17;18.10;;;12.77;;
8159;SDS011;27404;52.398;9.646;2023-09-12T11:51:53;17.43;;;12.20;;
8159;SDS011;27404;52.398;9.646;2023-09-12T11:54:20;14.67;;;12.23;;
8159;SDS011;27404;52.398;9.646;2023-09-12T11:56:51;19.27;;;12.83;;
8159;SDS011;27404;52.398;9.646;2023-09-12T11:59:36;20.97;;;13.03;;
8159;SDS011;27404;52.398;9.646;2023-09-12T12:02:05;15.90;;;12.23;;
8159;SDS011;27404;52.398;9.646;2023-09-12T12:04:35;19.43;;;13.50;;
8159;SDS011;27404;52.398;9.646;2023-09-12T12:07:01;16.43;;;13.67;;
8159;SDS011;27404;52.398;9.646;2023-09-12T12:09:27;17.80;;;12.03;;
8159;SDS011;27404;52.398;9.646;2023-09-12T12:11:53;19.07;;;13.17;;
8159;SDS011;27404;52.398;9.646;2023-09-12T12:14:18;15.33;;;12.13;;
8159;SDS011;27404;52.398;9.646;2023-09-12T12:16:47;14.27;;;10.43;;
8159;SDS011;27404;52.398;9.646;2023-09-12T12:19:13;15.33;;;11.63;;
8159;SDS011;27404;52.398;9.646;2023-09-12T12:21:42;14.60;;;10.60;;
8159;SDS011;27404;52.398;9.646;2023-09-12T12:24:11;14.70;;;11.50;;
8159;SDS011;27404;52.398;9.646;2023-09-12T12:26:42;17.90;;;12.27;;
8159;SDS011;27404;52.398;9.646;2023-09-12T12:29:08;14.47;;;11.90;;
8159;SDS011;27404;52.398;9.646;2023-09-12T12:31:35;16.00;;;12.07;;
8159;SDS011;27404;52.398;9.646;2023-09-12T12:34:01;17.23;;;12.87;;
8159;SDS011;27404;52.398;9.646;2023-09-12T12:36:28;15.17;;;12.43;;
8159;SDS011;27404;52.398;9.646;2023-09-12T12:38:54;14.50;;;11.63;;
8159;SDS011;27404;52.398;9.646;2023-09-12T12:41:26;13.40;;;11.30;;
8159;SDS011;27404;52.398;9.646;2023-09-12T12:43:53;14.17;;;10.83;;
8159;SDS011;27404;52.398;9.646;2023-09-12T12:46:24;13.87;;;11.70;;
8159;SDS011;27404;52.398;9.646;2023-09-12T12:48:49;12.57;;;10.43;;
8159;SDS011;27404;52.398;9.646;2023-09-12T12:51:16;13.43;;;10.83;;
8159;SDS011;27404;52.398;9.646;2023-09-12T12:53:45;11.90;;;9.97;;
8159;SDS011;27404;52.398;9.646;2023-09-12T12:56:12;11.33;;;9.53;;
8159;SDS011;27404;52.398;9.646;2023-09-12T12:58:54;11.93;;;10.60;;
8159;SDS011;27404;52.398;9.646;2023-09-12T13:01:22;12.80;;;11.30;;
8159;SDS011;27404;52.398;9.646;2023-09-12T13:03:48;12.80;;;10.97;;
8159;SDS011;27404;52.398;9.646;2023-09-12T13:06:15;16.13;;;11.13;;
8159;SDS011;27404;52.398;9.646;2023-09-12T13:08:42;13.83;;;11.30;;
8159;SDS011;27404;52.398;9.646;2023-09-12T13:11:09;12.67;;;9.50;;
8159;SDS011;27404;52.398;9.646;2023-09-12T13:13:35;13.67;;;10.13;;
8159;SDS011;27404;52.398;9.646;2023-09-12T13:16:02;11.23;;;9.37;;
8159;SDS011;27404;52.398;9.646;2023-09-12T13:18:34;10.20;;;8.67;;
8159;SDS011;27404;52.398;9.646;2023-09-12T13:21:00;9.17;;;8.03;;
8159;SDS011;27404;52.398;9.646;2023-09-12T13:23:27;7.90;;;6.93;;
8159;SDS011;27404;52.398;9.646;2023-09-12T13:25:53;8.60;;;6.77;;
8159;SDS011;27404;52.398;9.646;2023-09-12T13:28:18;8.52;;;7.05;;
8159;SDS011;27404;52.398;9.646;2023-09-12T13:30:44;5.38;;;4.75;;
8159;SDS011;27404;52.398;9.646;2023-09-12T13:33:10;7.13;;;5.40;;
8159;SDS011;27404;52.398;9.646;2023-09-12T13:35:36;9.65;;;6.57;;
8159;SDS011;27404;52.398;9.646;2023-09-12T13:38:02;7.82;;;6.38;;
8159;SDS011;27404;52.398;9.646;2023-09-12T13:40:34;9.07;;;6.03;;
8159;SDS011;27404;52.398;9.646;2023-09-12T13:43:04;6.38;;;5.63;;
8159;SDS011;27404;52.398;9.646;2023-09-12T13:45:30;8.93;;;6.55;;
8159;SDS011;27404;52.398;9.646;2023-09-12T13:47:56;6.78;;;5.05;;
8159;SDS011;27404;52.398;9.646;2023-09-12T13:50:23;5.95;;;4.25;;
8159;SDS011;27404;52.398;9.646;2023-09-12T13:52:49;6.95;;;5.10;;
8159;SDS011;27404;52.398;9.646;2023-09-12T13:55:14;5.90;;;4.70;;
8159;SDS011;27404;52.398;9.646;2023-09-12T13:57:41;5.57;;;4.22;;
8159;SDS011;27404;52.398;9.646;2023-09-12T14:00:07;5.20;;;4.70;;
8159;SDS011;27404;52.398;9.646;2023-09-12T14:02:33;5.78;;;3.97;;
8159;SDS011;27404;52.398;9.646;2023-09-12T14:04:58;3.80;;;3.50;;
8159;SDS011;27404;52.398;9.646;2023-09-12T14:07:24;5.50;;;3.38;;
8159;SDS011;27404;52.398;9.646;2023-09-12T14:09:50;3.53;;;3.15;;
8159;SDS011;27404;52.398;9.646;2023-09-12T14:12:17;6.03;;;4.18;;
8159;SDS011;27404;52.398;9.646;2023-09-12T14:14:42;4.13;;;3.55;;
8159;SDS011;27404;52.398;9.646;2023-09-12T14:17:09;4.05;;;3.08;;
8159;SDS011;27404;52.398;9.646;2023-09-12T14:19:34;4.43;;;3.42;;
8159;SDS011;27404;52.398;9.646;2023-09-12T14:22:00;4.28;;;3.80;;
8159;SDS011;27404;52.398;9.646;2023-09-12T14:24:26;3.95;;;3.42;;
8159;SDS011;27404;52.398;9.646;2023-09-12T14:26:51;4.03;;;3.60;;
8159;SDS011;27404;52.398;9.646;2023-09-12T14:29:16;4.75;;;3.45;;
8159;SDS011;27404;52.398;9.646;2023-09-12T14:31:43;5.00;;;3.60;;
8159;SDS011;27404;52.398;9.646;2023-09-12T14:34:15;3.63;;;3.17;;
8159;SDS011;27404;52.398;9.646;2023-09-12T14:36:41;3.85;;;3.20;;
8159;SDS011;27404;52.398;9.646;2023-09-12T14:39:07;4.72;;;3.40;;
8159;SDS011;27404;52.398;9.646;2023-09-12T14:41:32;5.55;;;3.90;;
8159;SDS011;27404;52.398;9.646;2023-09-12T14:43:58;4.85;;;3.88;;
8159;SDS011;27404;52.398;9.646;2023-09-12T14:46:23;3.75;;;3.10;;
8159;SDS011;27404;52.398;9.646;2023-09-12T14:48:49;4.85;;;3.60;;
8159;SDS011;27404;52.398;9.646;2023-09-12T14:51:14;7.10;;;3.70;;
8159;SDS011;27404;52.398;9.646;2023-09-12T14:53:40;3.50;;;3.03;;
8159;SDS011;27404;52.398;9.646;2023-09-12T14:56:12;3.45;;;2.90;;